sensor_id;sensor_type;location;lat;lon;timestamp;P1;durP1;ratioP1;P2;durP2;ratioP2
28625;SDS011;18905;42.668;23.364;2023-08-21T00:00:01;12.23;;;7.00;;
28625;SDS011;18905;42.668;23.364;2023-08-21T00:02:29;9.98;;;6.40;;
28625;SDS011;18905;42.668;23.364;2023-08-21T00:04:55;15.82;;;7.25;;
28625;SDS011;18905;42.668;23.364;2023-08-21T00:07:21;9.88;;;6.95;;
28625;SDS011;18905;42.668;23.364;2023-08-21T00:09:46;12.98;;;6.65;;
28625;SDS011;18905;42.668;23.364;2023-08-21T00:12:12;13.77;;;7.63;;
28625;SDS011;18905;42.668;23.364;2023-08-21T00:14:38;11.57;;;6.78;;
28625;SDS011;18905;42.668;23.364;2023-08-21T00:17:03;13.80;;;7.38;;
28625;SDS011;18905;42.668;23.364;2023-08-21T00:19:29;11.63;;;6.97;;
28625;SDS011;18905;42.668;23.364;2023-08-21T00:21:55;10.00;;;6.30;;
28625;SDS011;18905;42.668;23.364;2023-08-21T00:24:21;12.98;;;7.05;;
28625;SDS011;18905;42.668;23.364;2023-08-21T00:26:47;13.05;;;6.10;;
28625;SDS011;18905;42.668;23.364;2023-08-21T00:29:13;12.30;;;7.35;;
28625;SDS011;18905;42.668;23.364;2023-08-21T00:31:38;12.13;;;7.55;;
28625;SDS011;18905;42.668;23.364;2023-08-21T00:34:04;8.75;;;6.75;;
28625;SDS011;18905;42.668;23.364;2023-08-21T00:36:30;12.45;;;7.10;;
28625;SDS011;18905;42.668;23.364;2023-08-21T00:38:56;13.32;;;6.97;;
28625;SDS011;18905;42.668;23.364;2023-08-21T00:41:21;12.32;;;7.57;;
28625;SDS011;18905;42.668;23.364;2023-08-21T00:43:47;10.00;;;6.88;;
28625;SDS011;18905;42.668;23.364;2023-08-21T00:46:13;16.48;;;7.32;;
28625;SDS011;18905;42.668;23.364;2023-08-21T00:48:40;8.70;;;7.10;;
28625;SDS011;18905;42.668;23.364;2023-08-21T00:51:07;10.10;;;6.80;;
28625;SDS011;18905;42.668;23.364;2023-08-21T00:53:33;11.27;;;7.25;;
28625;SDS011;18905;42.668;23.364;2023-08-21T00:55:59;11.35;;;7.00;;
28625;SDS011;18905;42.668;23.364;2023-08-21T00:58:25;8.98;;;6.75;;
28625;SDS011;18905;42.668;23.364;2023-08-21T01:00:51;16.08;;;7.32;;
28625;SDS011;18905;42.668;23.364;2023-08-21T01:03:18;15.88;;;8.10;;
28625;SDS011;18905;42.668;23.364;2023-08-21T01:05:44;9.98;;;7.28;;
28625;SDS011;18905;42.668;23.364;2023-08-21T01:16:50;11.23;;;7.18;;
28625;SDS011;18905;42.668;23.364;2023-08-21T01:19:35;11.93;;;7.20;;
28625;SDS011;18905;42.668;23.364;2023-08-21T01:22:08;13.13;;;7.07;;
28625;SDS011;18905;42.668;23.364;2023-08-21T01:24:34;15.70;;;7.20;;
28625;SDS011;18905;42.668;23.364;2023-08-21T01:27:00;13.32;;;7.15;;
28625;SDS011;18905;42.668;23.364;2023-08-21T01:29:26;10.38;;;7.20;;
28625;SDS011;18905;42.668;23.364;2023-08-21T01:34:37;12.60;;;7.85;;
28625;SDS011;18905;42.668;23.364;2023-08-21T01:37:04;15.48;;;8.02;;
28625;SDS011;18905;42.668;23.364;2023-08-21T01:39:32;12.75;;;7.18;;
28625;SDS011;18905;42.668;23.364;2023-08-21T01:42:00;10.90;;;7.55;;
28625;SDS011;18905;42.668;23.364;2023-08-21T01:44:29;12.80;;;7.45;;
28625;SDS011;18905;42.668;23.364;2023-08-21T01:46:57;9.32;;;7.38;;
28625;SDS011;18905;42.668;23.364;2023-08-21T01:49:23;12.80;;;7.72;;
28625;SDS011;18905;42.668;23.364;2023-08-21T01:51:49;13.65;;;7.40;;
28625;SDS011;18905;42.668;23.364;2023-08-21T01:54:14;15.55;;;7.72;;
28625;SDS011;18905;42.668;23.364;2023-08-21T01:56:40;14.15;;;8.10;;
28625;SDS011;18905;42.668;23.364;2023-08-21T01:59:05;12.60;;;7.85;;
28625;SDS011;18905;42.668;23.364;2023-08-21T02:01:34;13.50;;;7.75;;
28625;SDS011;18905;42.668;23.364;2023-08-21T02:04:00;16.27;;;7.97;;
28625;SDS011;18905;42.668;23.364;2023-08-21T02:06:25;12.40;;;8.27;;
28625;SDS011;18905;42.668;23.364;2023-08-21T02:08:51;15.43;;;7.93;;
28625;SDS011;18905;42.668;23.364;2023-08-21T02:11:17;13.23;;;7.55;;
28625;SDS011;18905;42.668;23.364;2023-08-21T02:13:43;18.48;;;7.55;;
28625;SDS011;18905;42.668;23.364;2023-08-21T02:16:08;14.27;;;7.68;;
28625;SDS011;18905;42.668;23.364;2023-08-21T02:18:34;11.82;;;8.02;;
28625;SDS011;18905;42.668;23.364;2023-08-21T02:21:00;10.30;;;8.02;;
28625;SDS011;18905;42.668;23.364;2023-08-21T02:23:26;11.48;;;8.15;;
28625;SDS011;18905;42.668;23.364;2023-08-21T02:25:51;14.90;;;8.27;;
28625;SDS011;18905;42.668;23.364;2023-08-21T02:28:17;10.35;;;8.15;;
28625;SDS011;18905;42.668;23.364;2023-08-21T02:30:43;13.65;;;8.27;;
28625;SDS011;18905;42.668;23.364;2023-08-21T02:33:08;18.15;;;8.27;;
28625;SDS011;18905;42.668;23.364;2023-08-21T02:35:34;12.35;;;8.15;;
28625;SDS011;18905;42.668;23.364;2023-08-21T02:38:00;13.02;;;8.70;;
28625;SDS011;18905;42.668;23.364;2023-08-21T02:40:26;15.30;;;8.07;;
28625;SDS011;18905;42.668;23.364;2023-08-21T02:42:51;13.23;;;7.78;;
28625;SDS011;18905;42.668;23.364;2023-08-21T02:45:17;16.35;;;7.88;;
28625;SDS011;18905;42.668;23.364;2023-08-21T02:47:44;17.15;;;8.68;;
28625;SDS011;18905;42.668;23.364;2023-08-21T02:50:10;14.40;;;7.85;;
28625;SDS011;18905;42.668;23.364;2023-08-21T02:52:36;20.35;;;8.43;;
28625;SDS011;18905;42.668;23.364;2023-08-21T02:55:02;13.48;;;8.10;;
28625;SDS011;18905;42.668;23.364;2023-08-21T02:57:28;14.32;;;8.32;;
28625;SDS011;18905;42.668;23.364;2023-08-21T02:59:54;18.13;;;8.73;;
28625;SDS011;18905;42.668;23.364;2023-08-21T03:02:21;15.48;;;8.27;;
28625;SDS011;18905;42.668;23.364;2023-08-21T03:04:47;14.93;;;8.48;;
28625;SDS011;18905;42.668;23.364;2023-08-21T03:07:13;14.25;;;8.18;;
28625;SDS011;18905;42.668;23.364;2023-08-21T03:09:39;17.48;;;7.75;;
28625;SDS011;18905;42.668;23.364;2023-08-21T03:12:05;10.30;;;7.10;;
28625;SDS011;18905;42.668;23.364;2023-08-21T03:14:32;16.30;;;8.45;;
28625;SDS011;18905;42.668;23.364;2023-08-21T03:16:57;18.15;;;8.60;;
28625;SDS011;18905;42.668;23.364;2023-08-21T03:19:23;15.75;;;8.85;;
28625;SDS011;18905;42.668;23.364;2023-08-21T03:21:48;15.20;;;8.75;;
28625;SDS011;18905;42.668;23.364;2023-08-21T03:24:14;12.32;;;7.40;;
28625;SDS011;18905;42.668;23.364;2023-08-21T03:26:39;19.15;;;7.82;;
28625;SDS011;18905;42.668;23.364;2023-08-21T03:29:05;14.73;;;8.55;;
28625;SDS011;18905;42.668;23.364;2023-08-21T03:31:30;11.55;;;7.78;;
28625;SDS011;18905;42.668;23.364;2023-08-21T03:33:56;18.52;;;7.85;;
28625;SDS011;18905;42.668;23.364;2023-08-21T03:36:22;16.75;;;7.95;;
28625;SDS011;18905;42.668;23.364;2023-08-21T03:38:57;15.23;;;8.50;;
28625;SDS011;18905;42.668;23.364;2023-08-21T03:41:23;14.80;;;8.30;;
28625;SDS011;18905;42.668;23.364;2023-08-21T03:43:48;13.07;;;8.55;;
28625;SDS011;18905;42.668;23.364;2023-08-21T03:46:14;14.65;;;7.72;;
28625;SDS011;18905;42.668;23.364;2023-08-21T03:48:39;12.85;;;7.85;;
28625;SDS011;18905;42.668;23.364;2023-08-21T03:51:05;13.48;;;8.02;;
28625;SDS011;18905;42.668;23.364;2023-08-21T03:53:31;17.00;;;8.25;;
28625;SDS011;18905;42.668;23.364;2023-08-21T03:55:56;18.65;;;10.65;;
28625;SDS011;18905;42.668;23.364;2023-08-21T03:58:22;13.98;;;8.15;;
28625;SDS011;18905;42.668;23.364;2023-08-21T04:00:50;15.00;;;8.60;;
28625;SDS011;18905;42.668;23.364;2023-08-21T04:03:16;15.93;;;7.85;;
28625;SDS011;18905;42.668;23.364;2023-08-21T04:05:42;15.75;;;7.75;;
28625;SDS011;18905;42.668;23.364;2023-08-21T04:08:07;19.08;;;8.15;;
28625;SDS011;18905;42.668;23.364;2023-08-21T04:10:33;17.05;;;8.73;;
28625;SDS011;18905;42.668;23.364;2023-08-21T04:12:59;15.52;;;7.93;;
28625;SDS011;18905;42.668;23.364;2023-08-21T04:15:25;12.10;;;8.25;;
28625;SDS011;18905;42.668;23.364;2023-08-21T04:17:51;15.70;;;8.13;;
28625;SDS011;18905;42.668;23.364;2023-08-21T04:20:17;16.05;;;8.55;;
28625;SDS011;18905;42.668;23.364;2023-08-21T04:22:45;17.73;;;8.65;;
28625;SDS011;18905;42.668;23.364;2023-08-21T04:25:10;14.77;;;8.02;;
28625;SDS011;18905;42.668;23.364;2023-08-21T04:27:36;18.13;;;8.73;;
28625;SDS011;18905;42.668;23.364;2023-08-21T04:30:02;15.60;;;9.75;;
28625;SDS011;18905;42.668;23.364;2023-08-21T04:32:30;13.40;;;8.55;;
28625;SDS011;18905;42.668;23.364;2023-08-21T04:34:55;22.17;;;9.15;;
28625;SDS011;18905;42.668;23.364;2023-08-21T04:37:21;13.27;;;7.38;;
28625;SDS011;18905;42.668;23.364;2023-08-21T04:39:50;13.50;;;7.50;;
28625;SDS011;18905;42.668;23.364;2023-08-21T04:42:16;14.85;;;7.95;;
28625;SDS011;18905;42.668;23.364;2023-08-21T04:44:41;16.52;;;8.60;;
28625;SDS011;18905;42.668;23.364;2023-08-21T04:47:20;13.27;;;7.15;;
28625;SDS011;18905;42.668;23.364;2023-08-21T04:49:51;13.85;;;7.00;;
28625;SDS011;18905;42.668;23.364;2023-08-21T04:52:18;13.02;;;7.78;;
28625;SDS011;18905;42.668;23.364;2023-08-21T04:54:44;15.48;;;7.68;;
28625;SDS011;18905;42.668;23.364;2023-08-21T04:57:10;13.88;;;7.63;;
28625;SDS011;18905;42.668;23.364;2023-08-21T04:59:36;18.73;;;7.97;;
28625;SDS011;18905;42.668;23.364;2023-08-21T05:02:02;12.30;;;7.25;;
28625;SDS011;18905;42.668;23.364;2023-08-21T05:04:28;9.27;;;7.13;;
28625;SDS011;18905;42.668;23.364;2023-08-21T05:06:53;9.07;;;7.35;;
28625;SDS011;18905;42.668;23.364;2023-08-21T05:09:19;16.05;;;7.57;;
28625;SDS011;18905;42.668;23.364;2023-08-21T05:11:45;17.60;;;8.25;;
28625;SDS011;18905;42.668;23.364;2023-08-21T05:14:10;11.68;;;8.05;;
28625;SDS011;18905;42.668;23.364;2023-08-21T05:16:36;19.75;;;8.77;;
28625;SDS011;18905;42.668;23.364;2023-08-21T05:19:01;16.05;;;9.02;;
28625;SDS011;18905;42.668;23.364;2023-08-21T05:21:27;18.60;;;8.63;;
28625;SDS011;18905;42.668;23.364;2023-08-21T05:23:53;14.02;;;8.43;;
28625;SDS011;18905;42.668;23.364;2023-08-21T05:26:18;13.80;;;8.57;;
28625;SDS011;18905;42.668;23.364;2023-08-21T05:28:44;16.63;;;8.38;;
28625;SDS011;18905;42.668;23.364;2023-08-21T05:31:10;22.90;;;9.18;;
28625;SDS011;18905;42.668;23.364;2023-08-21T05:33:35;16.33;;;9.00;;
28625;SDS011;18905;42.668;23.364;2023-08-21T05:36:01;14.48;;;9.07;;
28625;SDS011;18905;42.668;23.364;2023-08-21T05:38:26;18.70;;;9.27;;
28625;SDS011;18905;42.668;23.364;2023-08-21T05:40:51;20.30;;;8.15;;
28625;SDS011;18905;42.668;23.364;2023-08-21T05:43:17;21.02;;;10.30;;
28625;SDS011;18905;42.668;23.364;2023-08-21T05:45:42;12.73;;;8.63;;
28625;SDS011;18905;42.668;23.364;2023-08-21T05:48:08;27.35;;;20.55;;
28625;SDS011;18905;42.668;23.364;2023-08-21T05:50:33;14.48;;;9.10;;
28625;SDS011;18905;42.668;23.364;2023-08-21T05:53:02;18.90;;;9.27;;
28625;SDS011;18905;42.668;23.364;2023-08-21T05:55:30;16.20;;;8.23;;
28625;SDS011;18905;42.668;23.364;2023-08-21T05:57:56;14.38;;;7.97;;
28625;SDS011;18905;42.668;23.364;2023-08-21T06:00:21;16.48;;;7.72;;
28625;SDS011;18905;42.668;23.364;2023-08-21T06:02:46;18.73;;;8.43;;
28625;SDS011;18905;42.668;23.364;2023-08-21T06:05:12;17.73;;;9.48;;
28625;SDS011;18905;42.668;23.364;2023-08-21T06:07:37;17.15;;;8.68;;
28625;SDS011;18905;42.668;23.364;2023-08-21T06:10:05;28.70;;;9.23;;
28625;SDS011;18905;42.668;23.364;2023-08-21T06:12:31;17.15;;;9.57;;
28625;SDS011;18905;42.668;23.364;2023-08-21T06:14:56;20.05;;;9.45;;
28625;SDS011;18905;42.668;23.364;2023-08-21T06:17:22;18.50;;;8.77;;
28625;SDS011;18905;42.668;23.364;2023-08-21T06:19:47;23.63;;;7.65;;
28625;SDS011;18905;42.668;23.364;2023-08-21T06:22:13;21.95;;;7.75;;
28625;SDS011;18905;42.668;23.364;2023-08-21T06:24:38;20.10;;;8.35;;
28625;SDS011;18905;42.668;23.364;2023-08-21T06:27:03;15.05;;;7.90;;
28625;SDS011;18905;42.668;23.364;2023-08-21T06:29:29;15.85;;;7.88;;
28625;SDS011;18905;42.668;23.364;2023-08-21T06:31:54;15.35;;;7.47;;
28625;SDS011;18905;42.668;23.364;2023-08-21T06:34:20;13.65;;;7.88;;
28625;SDS011;18905;42.668;23.364;2023-08-21T06:36:45;20.95;;;8.27;;
28625;SDS011;18905;42.668;23.364;2023-08-21T06:39:10;19.88;;;8.25;;
28625;SDS011;18905;42.668;23.364;2023-08-21T06:41:36;18.63;;;8.00;;
28625;SDS011;18905;42.668;23.364;2023-08-21T06:44:01;17.13;;;7.90;;
28625;SDS011;18905;42.668;23.364;2023-08-21T06:46:26;13.10;;;7.55;;
28625;SDS011;18905;42.668;23.364;2023-08-21T06:48:52;15.15;;;6.80;;
28625;SDS011;18905;42.668;23.364;2023-08-21T06:51:17;21.90;;;7.55;;
28625;SDS011;18905;42.668;23.364;2023-08-21T06:53:42;13.20;;;6.93;;
28625;SDS011;18905;42.668;23.364;2023-08-21T06:56:08;17.30;;;7.13;;
28625;SDS011;18905;42.668;23.364;2023-08-21T06:58:33;10.70;;;7.00;;
28625;SDS011;18905;42.668;23.364;2023-08-21T07:00:59;10.10;;;6.55;;
28625;SDS011;18905;42.668;23.364;2023-08-21T07:03:26;16.10;;;6.80;;
28625;SDS011;18905;42.668;23.364;2023-08-21T07:05:57;14.93;;;6.15;;
28625;SDS011;18905;42.668;23.364;2023-08-21T07:08:24;18.55;;;7.05;;
28625;SDS011;18905;42.668;23.364;2023-08-21T07:10:52;15.10;;;7.15;;
28625;SDS011;18905;42.668;23.364;2023-08-21T07:13:18;12.27;;;6.72;;
28625;SDS011;18905;42.668;23.364;2023-08-21T07:15:44;11.50;;;6.47;;
28625;SDS011;18905;42.668;23.364;2023-08-21T07:18:10;12.10;;;6.40;;
28625;SDS011;18905;42.668;23.364;2023-08-21T07:20:36;17.38;;;6.45;;
28625;SDS011;18905;42.668;23.364;2023-08-21T07:23:01;14.60;;;6.93;;
28625;SDS011;18905;42.668;23.364;2023-08-21T07:25:27;18.65;;;7.22;;
28625;SDS011;18905;42.668;23.364;2023-08-21T07:27:53;18.38;;;6.32;;
28625;SDS011;18905;42.668;23.364;2023-08-21T07:30:19;10.10;;;6.07;;
28625;SDS011;18905;42.668;23.364;2023-08-21T07:32:45;11.20;;;6.45;;
28625;SDS011;18905;42.668;23.364;2023-08-21T07:35:12;15.45;;;6.95;;
28625;SDS011;18905;42.668;23.364;2023-08-21T07:37:37;15.85;;;6.43;;
28625;SDS011;18905;42.668;23.364;2023-08-21T07:40:04;18.17;;;6.22;;
28625;SDS011;18905;42.668;23.364;2023-08-21T07:42:30;18.88;;;5.68;;
28625;SDS011;18905;42.668;23.364;2023-08-21T07:44:55;12.88;;;6.30;;
28625;SDS011;18905;42.668;23.364;2023-08-21T07:47:20;13.70;;;6.40;;
28625;SDS011;18905;42.668;23.364;2023-08-21T07:49:46;11.07;;;5.70;;
28625;SDS011;18905;42.668;23.364;2023-08-21T07:52:11;10.30;;;6.00;;
28625;SDS011;18905;42.668;23.364;2023-08-21T07:54:37;12.65;;;6.60;;
28625;SDS011;18905;42.668;23.364;2023-08-21T07:57:02;7.50;;;5.60;;
28625;SDS011;18905;42.668;23.364;2023-08-21T07:59:29;10.93;;;5.90;;
28625;SDS011;18905;42.668;23.364;2023-08-21T08:01:54;11.93;;;6.15;;
28625;SDS011;18905;42.668;23.364;2023-08-21T08:04:20;10.82;;;5.43;;
28625;SDS011;18905;42.668;23.364;2023-08-21T08:06:46;15.15;;;5.60;;
28625;SDS011;18905;42.668;23.364;2023-08-21T08:09:11;18.10;;;6.18;;
28625;SDS011;18905;42.668;23.364;2023-08-21T08:11:37;11.60;;;6.10;;
28625;SDS011;18905;42.668;23.364;2023-08-21T08:14:02;11.35;;;5.50;;
28625;SDS011;18905;42.668;23.364;2023-08-21T08:16:27;17.92;;;5.53;;
28625;SDS011;18905;42.668;23.364;2023-08-21T08:18:53;11.20;;;5.47;;
28625;SDS011;18905;42.668;23.364;2023-08-21T08:21:18;8.98;;;5.57;;
28625;SDS011;18905;42.668;23.364;2023-08-21T08:23:44;12.63;;;5.10;;
28625;SDS011;18905;42.668;23.364;2023-08-21T08:26:09;9.57;;;5.22;;
28625;SDS011;18905;42.668;23.364;2023-08-21T08:28:35;7.85;;;5.07;;
28625;SDS011;18905;42.668;23.364;2023-08-21T08:31:00;13.27;;;5.15;;
28625;SDS011;18905;42.668;23.364;2023-08-21T08:33:26;13.27;;;5.22;;
28625;SDS011;18905;42.668;23.364;2023-08-21T08:35:51;13.70;;;5.22;;
28625;SDS011;18905;42.668;23.364;2023-08-21T08:38:17;9.30;;;5.30;;
28625;SDS011;18905;42.668;23.364;2023-08-21T08:40:44;10.30;;;4.80;;
28625;SDS011;18905;42.668;23.364;2023-08-21T08:43:11;7.28;;;4.97;;
28625;SDS011;18905;42.668;23.364;2023-08-21T08:45:37;9.13;;;5.22;;
28625;SDS011;18905;42.668;23.364;2023-08-21T08:48:04;11.00;;;5.22;;
28625;SDS011;18905;42.668;23.364;2023-08-21T08:50:30;10.27;;;4.75;;
28625;SDS011;18905;42.668;23.364;2023-08-21T08:52:57;15.77;;;5.40;;
28625;SDS011;18905;42.668;23.364;2023-08-21T08:55:24;7.50;;;5.03;;
28625;SDS011;18905;42.668;23.364;2023-08-21T08:57:51;6.78;;;4.72;;
28625;SDS011;18905;42.668;23.364;2023-08-21T09:00:17;12.50;;;5.13;;
28625;SDS011;18905;42.668;23.364;2023-08-21T09:02:43;7.18;;;4.38;;
28625;SDS011;18905;42.668;23.364;2023-08-21T09:05:09;10.25;;;5.38;;
28625;SDS011;18905;42.668;23.364;2023-08-21T09:07:35;10.88;;;4.95;;
28625;SDS011;18905;42.668;23.364;2023-08-21T09:10:01;8.82;;;5.00;;
28625;SDS011;18905;42.668;23.364;2023-08-21T09:12:28;13.35;;;4.90;;
28625;SDS011;18905;42.668;23.364;2023-08-21T09:14:57;9.43;;;4.32;;
28625;SDS011;18905;42.668;23.364;2023-08-21T09:17:24;10.80;;;4.53;;
28625;SDS011;18905;42.668;23.364;2023-08-21T09:19:49;14.10;;;5.03;;
28625;SDS011;18905;42.668;23.364;2023-08-21T09:22:15;12.13;;;5.00;;
28625;SDS011;18905;42.668;23.364;2023-08-21T09:27:31;9.63;;;4.65;;
28625;SDS011;18905;42.668;23.364;2023-08-21T09:29:57;14.57;;;4.43;;
28625;SDS011;18905;42.668;23.364;2023-08-21T09:32:23;8.07;;;4.63;;
28625;SDS011;18905;42.668;23.364;2023-08-21T09:34:48;10.75;;;4.60;;
28625;SDS011;18905;42.668;23.364;2023-08-21T09:37:13;10.32;;;4.88;;
28625;SDS011;18905;42.668;23.364;2023-08-21T09:39:39;6.40;;;4.45;;
28625;SDS011;18905;42.668;23.364;2023-08-21T09:42:05;12.70;;;5.10;;
28625;SDS011;18905;42.668;23.364;2023-08-21T09:44:37;11.43;;;4.40;;
28625;SDS011;18905;42.668;23.364;2023-08-21T09:47:11;11.05;;;4.10;;
28625;SDS011;18905;42.668;23.364;2023-08-21T09:49:37;14.65;;;4.50;;
28625;SDS011;18905;42.668;23.364;2023-08-21T09:52:05;14.98;;;4.50;;
28625;SDS011;18905;42.668;23.364;2023-08-21T09:54:31;9.40;;;4.38;;
28625;SDS011;18905;42.668;23.364;2023-08-21T09:57:00;10.68;;;4.40;;
28625;SDS011;18905;42.668;23.364;2023-08-21T09:59:27;11.05;;;4.30;;
28625;SDS011;18905;42.668;23.364;2023-08-21T10:01:54;5.88;;;4.40;;
28625;SDS011;18905;42.668;23.364;2023-08-21T10:04:20;8.65;;;4.28;;
28625;SDS011;18905;42.668;23.364;2023-08-21T10:06:48;7.30;;;4.47;;
28625;SDS011;18905;42.668;23.364;2023-08-21T10:09:18;8.18;;;4.15;;
28625;SDS011;18905;42.668;23.364;2023-08-21T10:11:46;6.32;;;4.32;;
28625;SDS011;18905;42.668;23.364;2023-08-21T10:14:13;6.32;;;4.00;;
28625;SDS011;18905;42.668;23.364;2023-08-21T10:16:38;7.18;;;3.72;;
28625;SDS011;18905;42.668;23.364;2023-08-21T10:19:04;6.07;;;3.95;;
28625;SDS011;18905;42.668;23.364;2023-08-21T10:21:34;8.65;;;4.85;;
28625;SDS011;18905;42.668;23.364;2023-08-21T10:24:02;9.35;;;4.53;;
28625;SDS011;18905;42.668;23.364;2023-08-21T10:26:27;8.52;;;4.13;;
28625;SDS011;18905;42.668;23.364;2023-08-21T10:28:54;10.73;;;4.43;;
28625;SDS011;18905;42.668;23.364;2023-08-21T10:33:55;6.15;;;4.32;;
28625;SDS011;18905;42.668;23.364;2023-08-21T10:41:55;6.53;;;4.38;;
28625;SDS011;18905;42.668;23.364;2023-08-21T10:47:18;8.40;;;4.40;;
28625;SDS011;18905;42.668;23.364;2023-08-21T10:49:54;7.55;;;4.40;;
28625;SDS011;18905;42.668;23.364;2023-08-21T10:52:24;9.25;;;4.43;;
28625;SDS011;18905;42.668;23.364;2023-08-21T10:54:53;8.77;;;4.40;;
28625;SDS011;18905;42.668;23.364;2023-08-21T10:57:20;10.57;;;4.43;;
28625;SDS011;18905;42.668;23.364;2023-08-21T10:59:56;7.55;;;3.90;;
28625;SDS011;18905;42.668;23.364;2023-08-21T11:02:24;11.68;;;4.40;;
28625;SDS011;18905;42.668;23.364;2023-08-21T11:04:51;8.15;;;4.18;;
28625;SDS011;18905;42.668;23.364;2023-08-21T11:07:17;6.65;;;4.30;;
28625;SDS011;18905;42.668;23.364;2023-08-21T11:09:43;10.32;;;4.50;;
28625;SDS011;18905;42.668;23.364;2023-08-21T11:12:10;8.02;;;4.05;;
28625;SDS011;18905;42.668;23.364;2023-08-21T11:14:37;5.50;;;4.13;;
28625;SDS011;18905;42.668;23.364;2023-08-21T11:17:03;7.00;;;4.18;;
28625;SDS011;18905;42.668;23.364;2023-08-21T11:19:32;12.95;;;4.35;;
28625;SDS011;18905;42.668;23.364;2023-08-21T11:22:01;7.63;;;3.90;;
28625;SDS011;18905;42.668;23.364;2023-08-21T11:24:40;5.93;;;4.30;;
28625;SDS011;18905;42.668;23.364;2023-08-21T11:27:14;8.02;;;3.83;;
28625;SDS011;18905;42.668;23.364;2023-08-21T11:29:44;7.65;;;4.22;;
28625;SDS011;18905;42.668;23.364;2023-08-21T11:34:42;8.27;;;4.10;;
28625;SDS011;18905;42.668;23.364;2023-08-21T11:37:12;6.45;;;3.67;;
28625;SDS011;18905;42.668;23.364;2023-08-21T11:39:41;8.50;;;3.83;;
28625;SDS011;18905;42.668;23.364;2023-08-21T11:42:12;10.80;;;4.18;;
28625;SDS011;18905;42.668;23.364;2023-08-21T11:44:47;12.25;;;5.03;;
28625;SDS011;18905;42.668;23.364;2023-08-21T11:47:17;10.90;;;4.05;;
28625;SDS011;18905;42.668;23.364;2023-08-21T11:49:44;6.20;;;3.80;;
28625;SDS011;18905;42.668;23.364;2023-08-21T11:52:21;8.13;;;3.90;;
28625;SDS011;18905;42.668;23.364;2023-08-21T11:54:49;8.27;;;4.13;;
28625;SDS011;18905;42.668;23.364;2023-08-21T11:57:17;11.60;;;4.32;;
28625;SDS011;18905;42.668;23.364;2023-08-21T11:59:49;8.48;;;3.95;;
28625;SDS011;18905;42.668;23.364;2023-08-21T12:02:19;13.57;;;4.65;;
28625;SDS011;18905;42.668;23.364;2023-08-21T12:04:52;7.80;;;4.10;;
28625;SDS011;18905;42.668;23.364;2023-08-21T12:07:18;9.80;;;3.65;;
28625;SDS011;18905;42.668;23.364;2023-08-21T12:09:47;10.93;;;4.05;;
28625;SDS011;18905;42.668;23.364;2023-08-21T12:12:14;6.93;;;3.70;;
28625;SDS011;18905;42.668;23.364;2023-08-21T12:14:39;10.73;;;3.97;;
28625;SDS011;18905;42.668;23.364;2023-08-21T12:17:05;8.73;;;3.88;;
28625;SDS011;18905;42.668;23.364;2023-08-21T12:19:30;12.40;;;4.15;;
28625;SDS011;18905;42.668;23.364;2023-08-21T12:21:56;8.32;;;4.22;;
28625;SDS011;18905;42.668;23.364;2023-08-21T12:24:23;11.75;;;4.60;;
28625;SDS011;18905;42.668;23.364;2023-08-21T12:26:48;10.48;;;4.50;;
28625;SDS011;18905;42.668;23.364;2023-08-21T12:29:14;4.80;;;3.72;;
28625;SDS011;18905;42.668;23.364;2023-08-21T12:31:39;6.85;;;3.92;;
28625;SDS011;18905;42.668;23.364;2023-08-21T12:34:05;4.72;;;3.80;;
28625;SDS011;18905;42.668;23.364;2023-08-21T12:36:30;6.28;;;4.00;;
28625;SDS011;18905;42.668;23.364;2023-08-21T12:38:55;9.05;;;4.07;;
28625;SDS011;18905;42.668;23.364;2023-08-21T12:41:21;8.43;;;3.60;;
28625;SDS011;18905;42.668;23.364;2023-08-21T12:43:46;8.77;;;4.20;;
28625;SDS011;18905;42.668;23.364;2023-08-21T12:46:12;6.35;;;4.18;;
28625;SDS011;18905;42.668;23.364;2023-08-21T12:48:38;9.30;;;4.75;;
28625;SDS011;18905;42.668;23.364;2023-08-21T12:51:03;6.32;;;4.07;;
28625;SDS011;18905;42.668;23.364;2023-08-21T12:53:29;7.43;;;3.65;;
28625;SDS011;18905;42.668;23.364;2023-08-21T12:55:54;6.75;;;3.78;;
28625;SDS011;18905;42.668;23.364;2023-08-21T12:58:19;7.50;;;3.95;;
28625;SDS011;18905;42.668;23.364;2023-08-21T13:00:45;9.75;;;4.20;;
28625;SDS011;18905;42.668;23.364;2023-08-21T13:03:10;7.50;;;3.88;;
28625;SDS011;18905;42.668;23.364;2023-08-21T13:05:35;10.45;;;4.20;;
28625;SDS011;18905;42.668;23.364;2023-08-21T13:08:01;11.77;;;4.60;;
28625;SDS011;18905;42.668;23.364;2023-08-21T13:10:26;12.18;;;4.15;;
28625;SDS011;18905;42.668;23.364;2023-08-21T13:12:52;7.68;;;4.20;;
28625;SDS011;18905;42.668;23.364;2023-08-21T13:15:17;10.88;;;4.13;;
28625;SDS011;18905;42.668;23.364;2023-08-21T13:17:43;7.78;;;4.20;;
28625;SDS011;18905;42.668;23.364;2023-08-21T13:20:08;16.13;;;4.20;;
28625;SDS011;18905;42.668;23.364;2023-08-21T13:25:14;14.38;;;4.53;;
28625;SDS011;18905;42.668;23.364;2023-08-21T13:27:47;7.43;;;3.78;;
28625;SDS011;18905;42.668;23.364;2023-08-21T13:30:13;6.53;;;4.40;;
28625;SDS011;18905;42.668;23.364;2023-08-21T13:32:39;6.35;;;3.90;;
28625;SDS011;18905;42.668;23.364;2023-08-21T13:35:04;9.70;;;4.10;;
28625;SDS011;18905;42.668;23.364;2023-08-21T13:37:32;8.15;;;4.28;;
28625;SDS011;18905;42.668;23.364;2023-08-21T13:39:58;9.70;;;3.88;;
28625;SDS011;18905;42.668;23.364;2023-08-21T13:42:25;8.88;;;4.25;;
28625;SDS011;18905;42.668;23.364;2023-08-21T13:44:50;8.32;;;4.22;;
28625;SDS011;18905;42.668;23.364;2023-08-21T13:47:16;10.50;;;4.30;;
28625;SDS011;18905;42.668;23.364;2023-08-21T13:49:41;6.88;;;3.95;;
28625;SDS011;18905;42.668;23.364;2023-08-21T13:52:07;7.10;;;3.95;;
28625;SDS011;18905;42.668;23.364;2023-08-21T13:54:32;5.95;;;4.10;;
28625;SDS011;18905;42.668;23.364;2023-08-21T13:56:57;4.45;;;3.97;;
28625;SDS011;18905;42.668;23.364;2023-08-21T13:59:25;9.43;;;4.68;;
28625;SDS011;18905;42.668;23.364;2023-08-21T14:01:50;12.32;;;5.10;;
28625;SDS011;18905;42.668;23.364;2023-08-21T14:04:15;8.80;;;4.80;;
28625;SDS011;18905;42.668;23.364;2023-08-21T14:06:41;6.45;;;4.00;;
28625;SDS011;18905;42.668;23.364;2023-08-21T14:09:06;7.18;;;3.83;;
28625;SDS011;18905;42.668;23.364;2023-08-21T14:11:32;7.18;;;4.13;;
28625;SDS011;18905;42.668;23.364;2023-08-21T14:13:57;8.23;;;4.07;;
28625;SDS011;18905;42.668;23.364;2023-08-21T14:16:22;6.30;;;4.10;;
28625;SDS011;18905;42.668;23.364;2023-08-21T14:18:48;8.88;;;4.05;;
28625;SDS011;18905;42.668;23.364;2023-08-21T14:21:13;8.55;;;3.95;;
28625;SDS011;18905;42.668;23.364;2023-08-21T14:23:39;8.93;;;3.85;;
28625;SDS011;18905;42.668;23.364;2023-08-21T14:26:04;7.60;;;4.28;;
28625;SDS011;18905;42.668;23.364;2023-08-21T14:28:30;12.45;;;4.57;;
28625;SDS011;18905;42.668;23.364;2023-08-21T14:30:55;8.32;;;4.20;;
28625;SDS011;18905;42.668;23.364;2023-08-21T14:33:21;6.57;;;4.13;;
28625;SDS011;18905;42.668;23.364;2023-08-21T14:35:46;11.90;;;4.20;;
28625;SDS011;18905;42.668;23.364;2023-08-21T14:38:12;6.97;;;4.10;;
28625;SDS011;18905;42.668;23.364;2023-08-21T14:40:37;10.68;;;4.55;;
28625;SDS011;18905;42.668;23.364;2023-08-21T14:43:02;9.52;;;4.95;;
28625;SDS011;18905;42.668;23.364;2023-08-21T14:45:28;5.47;;;3.97;;
28625;SDS011;18905;42.668;23.364;2023-08-21T14:47:53;8.07;;;4.07;;
28625;SDS011;18905;42.668;23.364;2023-08-21T14:50:19;6.32;;;4.07;;